Time;durP1;ratioP1;P1;durP2;ratioP2;P2;SDS_P1;SDS_P2;PMS_P1;PMS_P2;Temp;Humidity;BMP_temperature;BMP_pressure;BME280_temperature;BME280_humidity;BME280_pressure;Samples;Min_cycle;Max_cycle;Signal;HPM_P1;HPM_P2
2022/02/26 00:00:34;;;;;;;4.75;1.38;;;6.40;99.90;;;;;;5069598;28;20601;-82
2022/02/26 00:02:59;;;;;;;3.63;0.95;;;6.40;99.90;;;;;;5085313;28;20414;-83
2022/02/26 00:05:34;;;;;;;0.70;0.60;;;6.40;99.90;;;;;;5080077;28;20020;-83
2022/02/26 00:08:05;;;;;;;1.30;0.57;;;6.40;99.90;;;;;;5079789;28;20036;-82
2022/02/26 00:10:35;;;;;;;1.83;0.83;;;6.40;99.90;;;;;;5079714;28;20063;-82
2022/02/26 00:13:45;;;;;;;3.53;0.90;;;6.40;99.90;;;;;;5083218;28;20040;-82
2022/02/26 00:16:20;;;;;;;1.80;0.90;;;6.40;99.90;;;;;;5079808;28;20202;-82
2022/02/26 00:19:19;;;;;;;2.15;0.77;;;6.40;99.90;;;;;;5070397;28;20037;-83
2022/02/26 00:29:20;;;;;;;0.95;0.60;;;6.50;99.90;;;;;;5083234;28;20035;-82
2022/02/26 00:36:32;;;;;;;;;;;;;;;;;;;;;
2022/02/26 00:39:52;;;;;;;1.88;0.68;;;6.50;99.90;;;;;;5107993;27;20036;-81
2022/02/26 00:55:56;;;;;;;0.90;0.55;;;6.50;99.90;;;;;;5016775;28;20076;-83
2022/02/26 00:58:53;;;;;;;6.18;1.00;;;6.40;99.90;;;;;;5027110;28;20041;-85
2022/02/26 01:01:58;;;;;;;2.25;1.02;;;6.40;99.90;;;;;;5021571;28;20152;-84
2022/02/26 01:04:56;;;;;;;3.15;1.20;;;6.30;99.90;;;;;;4945666;28;20046;-84
2022/02/26 01:08:26;;;;;;;1.25;0.60;;;6.30;99.90;;;;;;4977642;28;20076;-82
2022/02/26 01:11:04;;;;;;;2.28;1.00;;;6.20;99.90;;;;;;4969790;28;20046;-83
2022/02/26 01:17:24;;;;;;;1.02;0.80;;;6.20;99.90;;;;;;5049275;28;20077;-83
2022/02/26 01:27:18;;;;;;;2.15;0.90;;;6.30;99.90;;;;;;4971643;28;20035;-84
2022/02/26 02:34:28;;;;;;;3.85;1.00;;;6.20;99.90;;;;;;5022819;28;20570;-84
2022/02/26 03:11:56;;;;;;;3.30;1.02;;;5.80;99.90;;;;;;4917621;29;20570;-84
2022/02/26 03:34:36;;;;;;;1.73;1.20;;;5.70;99.90;;;;;;5016523;28;20088;-85
2022/02/26 03:38:09;;;;;;;;;;;;;;;;;;;;;
2022/02/26 05:01:16;;;;;;;;;;;;;;;;;;;;;
2022/02/26 05:04:23;;;;;;;4.47;1.30;;;5.30;99.90;;;;;;4961233;28;20089;-83
2022/02/26 05:07:26;;;;;;;9.35;1.58;;;5.30;99.90;;;;;;4972786;28;20034;-83
2022/02/26 05:10:24;;;;;;;3.30;1.33;;;5.20;99.90;;;;;;4981161;28;20036;-83
2022/02/26 05:13:18;;;;;;;2.50;1.40;;;5.30;99.90;;;;;;5020117;28;20130;-83
2022/02/26 05:19:06;;;;;;;2.03;1.23;;;5.30;99.90;;;;;;4978775;28;20045;-83
2022/02/26 05:22:30;;;;;;;5.22;1.38;;;5.30;99.90;;;;;;4983728;28;20706;-83
2022/02/26 05:52:10;;;;;;;;;;;;;;;;;;;;;
2022/02/26 05:55:37;;;;;;;;;;;;;;;;;;;;;
2022/02/26 06:05:47;;;;;;;2.55;1.00;;;5.40;99.90;;;;;;4906895;29;20523;-84
2022/02/26 06:15:52;;;;;;;1.60;1.10;;;5.60;99.90;;;;;;4725920;30;20047;-86
2022/02/26 06:18:43;;;;;;;4.30;1.20;;;5.70;99.90;;;;;;4817321;29;20050;-85
2022/02/26 06:24:29;;;;;;;;;;;;;;;;;;;;;
2022/02/26 06:27:50;;;;;;;;;;;;;;;;;;;;;
2022/02/26 06:30:16;;;;;;;3.08;1.20;;;5.80;99.90;;;;;;5014696;28;20076;-85
2022/02/26 06:32:57;;;;;;;2.97;1.45;;;5.90;99.90;;;;;;5084171;28;20093;-84
2022/02/26 06:36:12;;;;;;;2.30;1.13;;;5.90;99.90;;;;;;5076379;28;20058;-85
2022/02/26 06:42:15;;;;;;;2.63;1.17;;;6.00;99.90;;;;;;4980312;28;20042;-85
2022/02/26 06:45:52;;;;;;;;;;;;;;;;;;;;;
2022/02/26 06:48:19;;;;;;;2.40;1.08;;;6.10;99.90;;;;;;5012428;28;20037;-84
2022/02/26 06:50:52;;;;;;;4.32;1.50;;;6.10;99.90;;;;;;5024557;28;20486;-85
2022/02/26 06:53:18;;;;;;;3.38;1.40;;;6.20;99.90;;;;;;5079034;28;20027;-85
2022/02/26 06:55:56;;;;;;;4.50;1.23;;;6.20;99.90;;;;;;5083400;28;20046;-84
2022/02/26 06:58:28;;;;;;;3.70;1.50;;;6.30;99.90;;;;;;5095771;28;20031;-85
2022/02/26 07:01:02;;;;;;;4.47;1.67;;;6.30;99.90;;;;;;5076671;28;20376;-82
2022/02/26 07:03:34;;;;;;;2.70;1.17;;;6.40;99.90;;;;;;5096763;28;20073;-83
2022/02/26 07:06:02;;;;;;;3.85;1.40;;;6.40;99.90;;;;;;5101971;28;20486;-87
2022/02/26 07:08:28;;;;;;;4.88;1.30;;;6.40;99.90;;;;;;5100492;28;20024;-84
2022/02/26 07:10:55;;;;;;;3.25;1.30;;;6.50;99.90;;;;;;5080476;28;20077;-84
2022/02/26 07:13:23;;;;;;;2.63;1.17;;;6.50;99.90;;;;;;5101127;28;20031;-83
2022/02/26 07:15:55;;;;;;;2.95;1.27;;;6.60;99.90;;;;;;5097787;28;20032;-84
2022/02/26 07:18:21;;;;;;;2.83;1.27;;;6.60;99.90;;;;;;5082267;28;20390;-84
2022/02/26 07:20:51;;;;;;;4.10;1.48;;;6.70;99.90;;;;;;5081505;28;20281;-83
2022/02/26 07:23:26;;;;;;;3.70;1.90;;;6.80;99.90;;;;;;5100119;28;20065;-83
2022/02/26 07:26:00;;;;;;;2.00;1.30;;;6.80;99.90;;;;;;5099533;28;20028;-84
2022/02/26 07:28:28;;;;;;;3.65;1.30;;;6.90;99.90;;;;;;5058679;28;20127;-84
2022/02/26 07:31:00;;;;;;;2.42;1.10;;;6.90;99.90;;;;;;5096185;28;20028;-83
2022/02/26 07:33:28;;;;;;;2.65;1.23;;;6.80;99.90;;;;;;5105012;28;20042;-83
2022/02/26 07:36:04;;;;;;;3.65;1.25;;;6.80;99.90;;;;;;5098973;28;20020;-83
2022/02/26 07:38:44;;;;;;;9.80;1.50;;;6.80;99.90;;;;;;5070399;28;20043;-83
2022/02/26 07:41:13;;;;;;;4.70;1.52;;;6.90;99.90;;;;;;5097797;28;20067;-84
2022/02/26 07:43:40;;;;;;;3.67;1.30;;;7.00;99.90;;;;;;5084364;28;20540;-85
2022/02/26 07:46:07;;;;;;;2.92;1.08;;;7.00;99.90;;;;;;5107163;28;20028;-85
2022/02/26 07:48:38;;;;;;;3.88;1.40;;;7.00;99.90;;;;;;5072139;28;20430;-84
2022/02/26 07:51:04;;;;;;;3.97;1.40;;;7.00;99.90;;;;;;5097478;28;20090;-85
2022/02/26 07:53:56;;;;;;;3.08;1.45;;;7.10;99.90;;;;;;5086057;28;20043;-84
2022/02/26 07:56:30;;;;;;;7.65;1.52;;;7.10;99.90;;;;;;5097226;28;20039;-86
2022/02/26 07:58:56;;;;;;;4.03;1.58;;;7.20;99.90;;;;;;5102714;28;20084;-85
2022/02/26 08:01:42;;;;;;;;;;;;;;;;;;;;;
2022/02/26 08:04:18;;;;;;;2.85;1.60;;;7.10;99.90;;;;;;5093293;28;20042;-86
2022/02/26 08:06:44;;;;;;;4.70;1.20;;;7.20;99.90;;;;;;5082543;28;20084;-85
2022/02/26 08:09:10;;;;;;;7.18;1.95;;;7.20;99.90;;;;;;5099828;28;20439;-85
2022/02/26 08:11:39;;;;;;;3.67;1.77;;;7.30;99.90;;;;;;5074333;28;20020;-85
2022/02/26 08:14:07;;;;;;;3.50;1.58;;;7.40;99.90;;;;;;5105238;28;20043;-86
2022/02/26 08:16:34;;;;;;;2.80;1.70;;;7.50;99.90;;;;;;5105489;28;20077;-84
2022/02/26 08:19:15;;;;;;;2.75;1.50;;;7.50;99.90;;;;;;5091328;28;20039;-85
2022/02/26 08:21:50;;;;;;;4.15;1.85;;;7.50;99.90;;;;;;5103941;28;20470;-86
2022/02/26 08:24:17;;;;;;;2.25;1.40;;;7.50;99.90;;;;;;5092823;28;20080;-84
2022/02/26 08:26:46;;;;;;;2.13;1.63;;;7.60;99.90;;;;;;5106386;28;20034;-86
2022/02/26 08:29:13;;;;;;;4.40;1.45;;;7.50;99.90;;;;;;5107022;28;20024;-85
2022/02/26 08:31:38;;;;;;;4.78;1.67;;;7.50;99.90;;;;;;5087056;28;20028;-85
2022/02/26 08:34:05;;;;;;;7.88;1.88;;;7.50;99.90;;;;;;5087796;28;20050;-85
2022/02/26 08:36:44;;;;;;;2.30;1.70;;;7.50;99.90;;;;;;5085740;28;20090;-85
2022/02/26 08:39:24;;;;;;;2.47;1.42;;;7.40;99.90;;;;;;5101993;28;20521;-84
2022/02/26 08:41:56;;;;;;;2.08;1.40;;;7.40;99.90;;;;;;5086509;28;20047;-85
2022/02/26 08:44:31;;;;;;;8.80;1.33;;;7.40;99.90;;;;;;5083355;28;20028;-88
2022/02/26 08:46:58;;;;;;;5.50;1.38;;;7.40;99.90;;;;;;5089740;28;20127;-84
2022/02/26 08:49:34;;;;;;;1.30;1.20;;;7.40;99.90;;;;;;5105994;28;20193;-84
2022/02/26 08:52:06;;;;;;;2.90;1.83;;;7.40;99.90;;;;;;5083537;28;20097;-84
2022/02/26 08:54:32;;;;;;;3.05;1.73;;;7.40;99.90;;;;;;5101395;28;20024;-85
2022/02/26 08:56:58;;;;;;;6.30;1.77;;;7.50;99.90;;;;;;5086065;28;20074;-85
2022/02/26 08:59:24;;;;;;;3.20;1.48;;;7.50;99.90;;;;;;5090537;28;20012;-84
2022/02/26 09:01:53;;;;;;;3.28;1.75;;;7.60;99.90;;;;;;5081322;28;20031;-81
2022/02/26 09:04:19;;;;;;;1.70;1.30;;;7.60;99.90;;;;;;5097144;28;20012;-84
2022/02/26 09:06:45;;;;;;;4.97;1.95;;;7.70;99.90;;;;;;5104119;28;20521;-80
2022/02/26 09:09:10;;;;;;;3.97;1.73;;;7.70;99.90;;;;;;5103269;28;20490;-82
2022/02/26 09:11:37;;;;;;;3.08;1.50;;;7.80;99.90;;;;;;5103789;28;20628;-80
2022/02/26 09:14:04;;;;;;;5.90;1.42;;;8.00;99.90;;;;;;5106152;28;20097;-80
2022/02/26 09:16:30;;;;;;;2.45;1.17;;;8.00;99.90;;;;;;5102742;28;20649;-81
2022/02/26 09:18:56;;;;;;;4.85;1.92;;;8.10;99.90;;;;;;5100504;28;20024;-80
2022/02/26 09:21:25;;;;;;;2.58;1.33;;;8.10;99.90;;;;;;5105555;28;20020;-80
2022/02/26 09:23:53;;;;;;;4.97;1.50;;;8.10;99.90;;;;;;5099860;28;20036;-81
2022/02/26 09:26:45;;;;;;;;;;;;;;;;;;;;;
2022/02/26 09:29:33;;;;;;;3.78;1.95;;;8.50;99.90;;;;;;5100400;28;20036;-81
2022/02/26 09:31:57;;;;;;;3.75;1.65;;;8.70;99.90;;;;;;5097327;28;20142;-80
2022/02/26 09:34:26;;;;;;;4.75;1.55;;;8.70;99.90;;;;;;5098596;28;20098;-80
2022/02/26 09:36:57;;;;;;;2.17;1.30;;;8.80;99.90;;;;;;5097561;28;20111;-80
2022/02/26 09:39:23;;;;;;;3.00;1.20;;;8.90;99.90;;;;;;5096784;28;20053;-81
2022/02/26 09:41:51;;;;;;;2.20;1.52;;;9.10;99.90;;;;;;5101793;28;20031;-81
2022/02/26 09:44:19;;;;;;;1.90;0.70;;;9.20;99.90;;;;;;5098959;28;20065;-80
2022/02/26 09:46:48;;;;;;;3.25;1.00;;;9.00;99.00;;;;;;5102151;28;20432;-80
2022/02/26 09:49:14;;;;;;;3.95;1.35;;;9.00;99.50;;;;;;5086368;28;20093;-81
2022/02/26 09:51:42;;;;;;;3.75;2.03;;;9.20;99.70;;;;;;5083279;28;20627;-81
2022/02/26 09:54:14;;;;;;;2.83;1.20;;;9.20;98.50;;;;;;5100068;28;20035;-81
2022/02/26 09:56:40;;;;;;;2.28;1.30;;;9.10;97.40;;;;;;5100934;28;20055;-81
2022/02/26 09:59:06;;;;;;;2.55;1.30;;;9.00;99.90;;;;;;5099679;28;20415;-80
2022/02/26 10:01:32;;;;;;;2.15;1.20;;;9.00;98.30;;;;;;5101791;28;20055;-80
2022/02/26 10:04:10;;;;;;;3.60;1.65;;;9.10;99.10;;;;;;5099486;28;20047;-80
2022/02/26 10:06:36;;;;;;;3.67;1.17;;;9.10;96.90;;;;;;5099870;28;20042;-81
2022/02/26 10:09:13;;;;;;;3.75;1.33;;;8.90;96.90;;;;;;5098133;28;20025;-80
2022/02/26 10:11:40;;;;;;;1.33;1.23;;;8.90;97.60;;;;;;5081881;28;20024;-80
2022/02/26 10:14:15;;;;;;;2.10;1.13;;;8.90;98.10;;;;;;5101146;28;20031;-80
2022/02/26 10:16:58;;;;;;;2.30;1.60;;;9.00;97.90;;;;;;5100262;28;20027;-81
2022/02/26 10:19:26;;;;;;;2.85;1.45;;;9.00;98.00;;;;;;5096441;28;20104;-81
2022/02/26 10:21:58;;;;;;;2.80;1.25;;;9.20;99.60;;;;;;5098062;28;20019;-81
2022/02/26 10:24:24;;;;;;;;;;;9.30;96.80;;;;;;5097992;28;20051;-80
2022/02/26 10:27:06;;;;;;;3.33;1.10;;;9.20;97.70;;;;;;5097319;28;20322;-80
2022/02/26 10:29:38;;;;;;;1.67;1.20;;;9.10;97.40;;;;;;5098950;28;20067;-80
2022/02/26 10:32:18;;;;;;;3.22;1.17;;;9.10;97.20;;;;;;5083154;28;20103;-80
2022/02/26 10:34:47;;;;;;;4.78;1.50;;;9.10;97.70;;;;;;5102797;28;20211;-80
2022/02/26 10:37:17;;;;;;;3.60;1.70;;;9.30;97.00;;;;;;5099330;28;20030;-80
2022/02/26 10:40:10;;;;;;;2.55;1.50;;;9.50;97.30;;;;;;5081075;28;20437;-80
2022/02/26 10:42:37;;;;;;;1.05;0.90;;;9.60;98.20;;;;;;5091650;28;20081;-80
2022/02/26 10:45:22;;;;;;;4.05;1.50;;;9.50;95.60;;;;;;5098634;28;20032;-79
2022/02/26 10:47:49;;;;;;;2.22;1.33;;;9.60;96.30;;;;;;5101950;28;20456;-79
2022/02/26 10:50:18;;;;;;;2.42;1.42;;;9.70;95.50;;;;;;5098680;28;20034;-80
2022/02/26 10:53:01;;;;;;;2.88;1.40;;;9.70;97.00;;;;;;5102118;28;20108;-79
2022/02/26 10:55:50;;;;;;;2.15;1.42;;;9.60;96.40;;;;;;5098457;28;20055;-80
2022/02/26 10:58:21;;;;;;;3.90;1.33;;;9.50;95.20;;;;;;5083592;28;20442;-80
2022/02/26 11:00:48;;;;;;;2.55;1.33;;;9.50;95.20;;;;;;5098023;28;20026;-79
2022/02/26 11:03:16;;;;;;;2.15;1.40;;;9.70;95.00;;;;;;5084132;28;20386;-80
2022/02/26 11:05:45;;;;;;;2.47;1.30;;;9.70;94.20;;;;;;5081952;28;20058;-80
2022/02/26 11:08:12;;;;;;;2.95;1.33;;;9.60;94.60;;;;;;5099149;28;20364;-79
2022/02/26 11:10:40;;;;;;;3.60;1.77;;;9.50;94.90;;;;;;5079901;28;20040;-80
2022/02/26 11:13:06;;;;;;;2.55;1.40;;;9.50;94.70;;;;;;5101665;28;20040;-80
2022/02/26 11:15:32;;;;;;;1.45;1.08;;;9.50;93.60;;;;;;5098037;28;20028;-80
2022/02/26 11:18:08;;;;;;;3.38;1.45;;;9.70;93.50;;;;;;5082941;28;20031;-80
2022/02/26 11:20:34;;;;;;;2.92;1.40;;;9.70;94.60;;;;;;5102160;28;20032;-80
2022/02/26 11:23:00;;;;;;;2.42;1.35;;;9.80;95.00;;;;;;5096953;28;20098;-80
2022/02/26 11:25:30;;;;;;;1.75;1.17;;;9.80;93.70;;;;;;5097744;28;20111;-80
2022/02/26 11:27:59;;;;;;;6.18;2.47;;;9.90;94.90;;;;;;5083359;28;20019;-80
2022/02/26 11:30:32;;;;;;;3.03;1.50;;;9.80;94.70;;;;;;5080362;28;20038;-80
2022/02/26 11:33:02;;;;;;;4.05;1.10;;;9.80;93.30;;;;;;5096268;28;20403;-80
2022/02/26 11:35:28;;;;;;;3.78;1.48;;;10.00;93.90;;;;;;5097854;28;20039;-80
2022/02/26 11:38:05;;;;;;;1.85;1.15;;;10.10;93.90;;;;;;5101331;28;20020;-80
2022/02/26 11:40:32;;;;;;;2.55;1.27;;;10.20;92.90;;;;;;5079164;28;20025;-80
2022/02/26 11:43:03;;;;;;;2.83;1.48;;;10.00;93.20;;;;;;5083457;28;20028;-80
2022/02/26 11:45:33;;;;;;;1.65;1.25;;;10.10;94.90;;;;;;5079547;28;20059;-80
2022/02/26 11:48:10;;;;;;;6.13;1.45;;;10.00;93.20;;;;;;5083277;28;20035;-79
2022/02/26 11:50:59;;;;;;;3.70;1.27;;;9.90;93.50;;;;;;5086053;27;20027;-79
2022/02/26 11:53:43;;;;;;;2.63;1.20;;;10.00;94.40;;;;;;5074726;28;20040;-79
2022/02/26 11:56:10;;;;;;;2.97;1.58;;;9.90;94.40;;;;;;5103081;28;20070;-79
2022/02/26 11:58:43;;;;;;;11.93;1.67;;;9.70;94.00;;;;;;5093744;28;20067;-80
2022/02/26 12:01:11;;;;;;;;;;;9.70;94.00;;;;;;5103431;28;20052;-80
2022/02/26 12:03:52;;;;;;;5.60;1.60;;;9.80;94.00;;;;;;5104322;28;19903;-80
2022/02/26 12:06:21;;;;;;;2.50;1.40;;;9.80;93.90;;;;;;5100713;28;20123;-80
2022/02/26 12:08:53;;;;;;;3.35;1.73;;;10.00;95.00;;;;;;5106297;28;20114;-79
2022/02/26 12:11:19;;;;;;;4.43;1.73;;;10.00;93.60;;;;;;5102976;28;20063;-80
2022/02/26 12:13:49;;;;;;;2.45;1.77;;;10.00;94.70;;;;;;5102934;28;20486;-80
2022/02/26 12:16:29;;;;;;;3.83;1.85;;;10.10;93.60;;;;;;5101321;28;20024;-79
2022/02/26 12:19:05;;;;;;;3.17;1.65;;;10.10;94.20;;;;;;5102241;28;20109;-80
2022/02/26 12:21:34;;;;;;;3.72;2.00;;;10.20;94.80;;;;;;5100812;28;20497;-82
2022/02/26 12:24:08;;;;;;;3.70;2.03;;;10.30;95.40;;;;;;5101728;28;20048;-82
2022/02/26 12:27:04;;;;;;;3.55;1.35;;;10.40;93.90;;;;;;5085787;28;20024;-89
2022/02/26 12:29:31;;;;;;;2.55;1.75;;;10.70;93.70;;;;;;5102764;28;20030;-82
2022/02/26 12:32:30;;;;;;;4.03;1.80;;;12.30;91.50;;;;;;5085751;28;20118;-81
2022/02/26 12:35:16;;;;;;;2.25;1.73;;;14.20;87.30;;;;;;5088133;28;20058;-81
2022/02/26 12:37:50;;;;;;;3.83;3.45;;;14.80;80.80;;;;;;5096044;28;20024;-85
2022/02/26 12:40:29;;;;;;;2.20;1.63;;;13.80;79.60;;;;;;5090331;28;20031;-80
2022/02/26 12:43:06;;;;;;;4.70;1.70;;;13.60;78.60;;;;;;5101643;28;20103;-80
2022/02/26 12:45:44;;;;;;;6.82;3.33;;;13.50;80.40;;;;;;5099796;28;20044;-80
2022/02/26 12:48:13;;;;;;;5.55;2.83;;;14.30;80.10;;;;;;5105246;28;20115;-83
2022/02/26 12:50:46;;;;;;;5.50;2.90;;;13.60;79.10;;;;;;5101625;28;20052;-83
2022/02/26 12:53:12;;;;;;;5.68;3.13;;;13.90;77.80;;;;;;5107246;28;20119;-81
2022/02/26 12:55:38;;;;;;;3.22;1.92;;;14.00;75.20;;;;;;5104488;28;20107;-82
2022/02/26 12:58:14;;;;;;;2.20;1.80;;;13.30;76.70;;;;;;5104737;28;20106;-80
2022/02/26 13:00:40;;;;;;;3.83;2.17;;;13.70;76.50;;;;;;5106565;28;20027;-83
2022/02/26 13:03:08;;;;;;;6.43;2.53;;;13.30;76.70;;;;;;5102855;28;20024;-80
2022/02/26 13:05:35;;;;;;;4.55;2.47;;;12.40;79.60;;;;;;5086654;28;20016;-80
2022/02/26 13:08:02;;;;;;;4.55;2.47;;;12.30;82.10;;;;;;5103919;28;20115;-81
2022/02/26 13:10:34;;;;;;;4.05;2.50;;;12.20;81.30;;;;;;5106382;28;20483;-77
2022/02/26 13:13:08;;;;;;;3.65;2.45;;;14.00;79.80;;;;;;5103636;28;20075;-79
2022/02/26 13:15:46;;;;;;;7.95;2.30;;;14.90;74.40;;;;;;5081995;28;20056;-81
2022/02/26 13:18:17;;;;;;;1.70;1.60;;;15.50;70.50;;;;;;5086009;28;20410;-80
2022/02/26 13:20:46;;;;;;;20.35;2.17;;;13.30;74.30;;;;;;5100151;28;20020;-80
2022/02/26 13:23:25;;;;;;;6.22;2.40;;;13.10;75.90;;;;;;5105322;28;20039;-80
2022/02/26 13:25:54;;;;;;;5.28;3.20;;;14.80;74.50;;;;;;5106070;28;20034;-78
2022/02/26 13:28:24;;;;;;;3.15;1.95;;;15.30;71.70;;;;;;5097439;28;20036;-83
2022/02/26 13:30:51;;;;;;;2.30;1.83;;;15.30;69.10;;;;;;5096008;28;20060;-83
2022/02/26 13:33:22;;;;;;;4.10;2.33;;;14.20;72.40;;;;;;5088574;28;20036;-80
2022/02/26 13:35:51;;;;;;;3.53;1.90;;;15.40;70.30;;;;;;5100166;28;20086;-81
2022/02/26 13:38:18;;;;;;;4.95;2.70;;;15.10;67.60;;;;;;5100986;28;20502;-80
2022/02/26 13:40:47;;;;;;;3.85;1.90;;;16.10;68.40;;;;;;5102403;28;20028;-82
2022/02/26 13:43:41;;;;;;;5.03;2.33;;;16.30;64.50;;;;;;5087437;28;20055;-89
2022/02/26 13:47:06;;;;;;;4.00;2.70;;;15.50;66.50;;;;;;5093488;28;20024;-92
2022/02/26 13:49:53;;;;;;;5.22;3.22;;;16.40;65.20;;;;;;5095297;28;20497;-84
2022/02/26 13:52:57;;;;;;;;;;;;;;;;;;;;;
2022/02/26 13:55:38;;;;;;;7.65;4.95;;;17.80;61.70;;;;;;5117139;27;20536;-89
2022/02/26 13:58:05;;;;;;;3.47;2.63;;;18.20;60.50;;;;;;5108226;27;20498;-83
2022/02/26 14:00:36;;;;;;;7.32;4.90;;;18.20;58.10;;;;;;5122856;27;20032;-90
2022/02/26 14:03:11;;;;;;;6.93;2.95;;;18.70;57.50;;;;;;5124646;27;20031;-84
2022/02/26 14:05:41;;;;;;;3.70;2.83;;;19.20;55.80;;;;;;5111434;28;20027;-82
2022/02/26 14:08:09;;;;;;;3.45;2.15;;;18.30;56.20;;;;;;5124169;27;20038;-80
2022/02/26 14:10:39;;;;;;;4.63;3.03;;;19.00;55.10;;;;;;5125634;27;20027;-81
2022/02/26 14:13:16;;;;;;;2.45;1.60;;;19.40;54.70;;;;;;5117622;27;20024;-83
2022/02/26 14:15:47;;;;;;;4.15;1.35;;;18.90;53.40;;;;;;5120135;27;20031;-85
2022/02/26 14:18:21;;;;;;;3.83;2.53;;;18.80;54.10;;;;;;5125032;27;20022;-83
2022/02/26 14:20:51;;;;;;;5.15;3.05;;;18.80;53.00;;;;;;5126097;27;20023;-90
2022/02/26 14:23:19;;;;;;;5.35;3.53;;;16.90;54.20;;;;;;5104214;27;20050;-82
2022/02/26 14:25:45;;;;;;;6.15;3.63;;;17.20;56.00;;;;;;5122189;27;20027;-82
2022/02/26 14:28:22;;;;;;;20.02;2.78;;;16.60;56.50;;;;;;5124058;27;20469;-83
2022/02/26 14:30:52;;;;;;;4.75;2.67;;;17.90;54.30;;;;;;5125363;27;20019;-81
2022/02/26 14:33:31;;;;;;;9.15;6.00;;;19.50;52.10;;;;;;5121448;27;20051;-81
2022/02/26 14:35:57;;;;;;;2.92;2.13;;;19.00;50.60;;;;;;5125320;27;20031;-81
2022/02/26 14:38:23;;;;;;;5.88;3.72;;;17.50;53.40;;;;;;5117966;27;20027;-82
2022/02/26 14:40:48;;;;;;;12.60;4.03;;;17.90;54.30;;;;;;5123204;27;20513;-81
2022/02/26 14:43:14;;;;;;;3.97;1.80;;;18.60;53.00;;;;;;5121066;27;20031;-81
2022/02/26 14:45:40;;;;;;;4.95;2.45;;;18.90;51.60;;;;;;5103816;28;20019;-81
2022/02/26 14:48:06;;;;;;;2.95;1.73;;;19.00;52.80;;;;;;5123148;27;20030;-83
2022/02/26 14:50:32;;;;;;;3.13;2.05;;;18.80;51.90;;;;;;5123536;27;20035;-82
2022/02/26 14:52:58;;;;;;;5.32;4.07;;;18.40;53.50;;;;;;5122869;27;20107;-81
2022/02/26 14:55:24;;;;;;;7.13;4.28;;;18.50;53.60;;;;;;5119747;27;20027;-82
2022/02/26 14:57:51;;;;;;;3.58;2.20;;;17.40;54.40;;;;;;5120653;27;20024;-82
2022/02/26 15:00:20;;;;;;;4.80;3.33;;;16.10;56.40;;;;;;5125207;27;20031;-81
2022/02/26 15:02:46;;;;;;;2.85;1.92;;;15.00;58.40;;;;;;5121263;27;20498;-81
2022/02/26 15:05:12;;;;;;;8.45;3.45;;;14.50;59.70;;;;;;5110090;27;20031;-83
2022/02/26 15:07:40;;;;;;;3.67;2.42;;;15.30;59.70;;;;;;5127153;27;20023;-81
2022/02/26 15:10:10;;;;;;;9.02;5.05;;;15.40;58.20;;;;;;5124796;27;20110;-83
2022/02/26 15:12:36;;;;;;;4.45;2.15;;;15.00;60.10;;;;;;5123366;27;20012;-83
2022/02/26 15:15:04;;;;;;;2.83;2.00;;;15.30;59.80;;;;;;5108771;27;20026;-83
2022/02/26 15:17:30;;;;;;;2.72;2.03;;;16.20;58.50;;;;;;5102507;28;20023;-83
2022/02/26 15:19:58;;;;;;;2.80;2.15;;;16.80;57.60;;;;;;5121374;27;20426;-82
2022/02/26 15:22:24;;;;;;;3.92;2.47;;;16.10;57.90;;;;;;5092273;27;20114;-83
2022/02/26 15:24:53;;;;;;;4.60;2.05;;;15.70;58.30;;;;;;5123445;27;20055;-83
2022/02/26 15:27:31;;;;;;;5.15;2.13;;;15.40;59.60;;;;;;5123677;27;20027;-82
2022/02/26 15:29:57;;;;;;;5.65;3.30;;;14.90;61.30;;;;;;5104802;28;20015;-83
2022/02/26 15:32:32;;;;;;;3.42;2.03;;;15.10;60.60;;;;;;5108827;27;20023;-82
2022/02/26 15:35:05;;;;;;;2.67;1.83;;;14.30;61.70;;;;;;5124318;27;20044;-82
2022/02/26 15:37:42;;;;;;;14.60;7.43;;;13.50;63.60;;;;;;5103754;28;20012;-82
2022/02/26 15:40:15;;;;;;;14.00;8.05;;;12.70;65.80;;;;;;5110081;27;20030;-83
2022/02/26 15:42:41;;;;;;;13.10;6.72;;;12.80;67.40;;;;;;5104515;28;20042;-82
2022/02/26 15:45:12;;;;;;;9.75;5.40;;;12.70;66.00;;;;;;5099863;28;20469;-82
2022/02/26 15:47:41;;;;;;;11.17;7.00;;;12.90;67.20;;;;;;5103453;28;20126;-82
2022/02/26 15:50:13;;;;;;;6.28;2.38;;;13.00;67.10;;;;;;5109087;27;20023;-92
2022/02/26 15:52:40;;;;;;;10.75;6.72;;;12.90;67.30;;;;;;5119508;27;20040;-82
2022/02/26 15:55:18;;;;;;;9.50;5.50;;;13.00;68.00;;;;;;5126900;28;20019;-85
2022/02/26 15:57:46;;;;;;;8.15;4.82;;;12.80;67.20;;;;;;5103853;28;20068;-82
2022/02/26 16:00:27;;;;;;;10.50;6.18;;;12.70;68.50;;;;;;5122460;27;20035;-82
2022/02/26 16:02:56;;;;;;;4.93;2.67;;;12.80;68.10;;;;;;5098174;28;20088;-82
2022/02/26 16:05:24;;;;;;;5.80;1.83;;;12.30;69.00;;;;;;5122703;28;20031;-84
2022/02/26 16:07:54;;;;;;;5.38;3.38;;;12.00;71.10;;;;;;5118824;28;20020;-85
2022/02/26 16:10:29;;;;;;;8.02;4.70;;;11.10;71.90;;;;;;5122834;27;20768;-85
2022/02/26 16:12:55;;;;;;;6.85;3.15;;;11.20;73.50;;;;;;5121149;27;20034;-85
2022/02/26 16:15:24;;;;;;;4.88;2.83;;;11.10;73.20;;;;;;5124053;27;20106;-82
2022/02/26 16:17:55;;;;;;;4.95;2.58;;;10.80;75.50;;;;;;5120216;27;20016;-81
2022/02/26 16:20:21;;;;;;;6.93;3.83;;;10.30;76.90;;;;;;5123949;28;20342;-81
2022/02/26 16:22:50;;;;;;;6.25;3.85;;;10.10;79.30;;;;;;5119759;28;20071;-79
2022/02/26 16:25:16;;;;;;;3.22;2.17;;;9.70;80.40;;;;;;5125298;27;20022;-79
2022/02/26 16:27:44;;;;;;;4.50;2.53;;;9.40;82.60;;;;;;5123048;27;20031;-81
2022/02/26 16:30:13;;;;;;;7.93;3.83;;;9.20;85.00;;;;;;5116573;28;20474;-83
2022/02/26 16:32:40;;;;;;;5.03;3.42;;;9.00;87.70;;;;;;5126594;27;20024;-83
2022/02/26 16:35:10;;;;;;;2.58;1.88;;;8.80;90.00;;;;;;5129283;27;20084;-83
2022/02/26 16:37:48;;;;;;;4.53;2.38;;;8.60;90.90;;;;;;5106303;27;20023;-83
2022/02/26 16:40:18;;;;;;;4.47;1.95;;;8.50;92.30;;;;;;5110846;27;20062;-82
2022/02/26 16:42:51;;;;;;;7.20;3.08;;;8.40;93.50;;;;;;5123637;27;20188;-83
2022/02/26 16:45:18;;;;;;;2.50;1.90;;;8.30;94.80;;;;;;5109630;27;20545;-82
2022/02/26 16:47:43;;;;;;;4.45;2.35;;;8.20;95.50;;;;;;5122668;27;20486;-83
2022/02/26 16:50:12;;;;;;;6.75;3.28;;;8.20;96.50;;;;;;5129439;27;20012;-84
2022/02/26 16:52:38;;;;;;;5.63;2.92;;;8.10;97.30;;;;;;5105674;28;20031;-83
2022/02/26 16:55:07;;;;;;;5.72;2.22;;;8.10;98.70;;;;;;5129474;27;20481;-84
2022/02/26 16:57:36;;;;;;;3.55;2.38;;;8.00;99.20;;;;;;5124354;27;20683;-82
2022/02/26 17:00:08;;;;;;;2.60;1.60;;;8.00;99.90;;;;;;5120969;27;20030;-84
2022/02/26 17:02:34;;;;;;;4.75;2.70;;;7.80;99.90;;;;;;5127830;27;20546;-86
2022/02/26 17:05:18;;;;;;;2.45;1.63;;;7.90;99.90;;;;;;5130932;27;20490;-81
2022/02/26 17:07:45;;;;;;;4.38;2.45;;;7.80;99.90;;;;;;5108288;27;20040;-85
2022/02/26 17:10:24;;;;;;;6.45;2.17;;;7.60;99.90;;;;;;5121285;27;20034;-85
2022/02/26 17:12:50;;;;;;;3.28;1.30;;;7.50;99.90;;;;;;5125722;27;20022;-82
2022/02/26 17:15:16;;;;;;;1.70;1.20;;;7.40;99.90;;;;;;5102601;27;20118;-83
2022/02/26 17:17:43;;;;;;;6.03;1.55;;;7.40;99.90;;;;;;5124610;27;20050;-82
2022/02/26 17:20:09;;;;;;;3.08;1.58;;;7.50;99.90;;;;;;5120900;27;20034;-84
2022/02/26 17:22:51;;;;;;;2.67;1.10;;;7.40;99.90;;;;;;5122888;27;20061;-83
2022/02/26 17:25:18;;;;;;;0.87;0.87;;;7.40;99.90;;;;;;5113357;27;20027;-80
2022/02/26 17:28:11;;;;;;;3.17;1.23;;;7.40;99.90;;;;;;5124769;27;20023;-80
2022/02/26 17:30:40;;;;;;;2.75;1.40;;;7.30;99.90;;;;;;5101251;28;20456;-82
2022/02/26 17:33:06;;;;;;;2.40;1.70;;;7.40;99.90;;;;;;5123754;27;20023;-82
2022/02/26 17:35:33;;;;;;;4.85;2.90;;;7.40;99.90;;;;;;5106495;28;20028;-82
2022/02/26 17:38:03;;;;;;;1.65;1.40;;;7.40;99.90;;;;;;5124013;27;20023;-81
2022/02/26 17:40:44;;;;;;;1.85;1.48;;;7.30;99.90;;;;;;5127161;27;20493;-84
2022/02/26 17:43:16;;;;;;;5.23;1.97;;;7.40;99.90;;;;;;5125479;27;20043;-84
2022/02/26 17:45:57;;;;;;;2.40;1.17;;;7.50;99.90;;;;;;5120401;27;20824;-84
2022/02/26 17:48:37;;;;;;;4.97;2.03;;;7.50;99.90;;;;;;5111665;27;20102;-84
2022/02/26 17:51:03;;;;;;;3.88;2.17;;;7.50;99.90;;;;;;5120460;27;20040;-84
2022/02/26 17:53:32;;;;;;;4.00;2.17;;;7.40;99.90;;;;;;5084555;28;20494;-83
2022/02/26 17:55:58;;;;;;;2.78;1.85;;;7.40;99.90;;;;;;5098164;28;20031;-84
2022/02/26 17:58:24;;;;;;;5.65;1.75;;;7.40;99.90;;;;;;5104873;28;20016;-85
2022/02/26 18:00:55;;;;;;;3.05;1.50;;;7.40;99.90;;;;;;5086029;28;20478;-86
2022/02/26 18:03:33;;;;;;;4.40;2.53;;;7.30;99.90;;;;;;5100277;28;20039;-84
2022/02/26 18:06:00;;;;;;;4.30;1.25;;;7.30;99.90;;;;;;5086055;28;20027;-86
2022/02/26 18:11:31;;;;;;;2.53;1.52;;;7.40;99.90;;;;;;5041518;28;20547;-85
2022/02/26 18:13:57;;;;;;;2.67;1.48;;;7.30;99.90;;;;;;5036249;28;20034;-86
2022/02/26 18:16:25;;;;;;;3.42;1.65;;;7.30;99.90;;;;;;5050298;28;20042;-84
2022/02/26 18:18:54;;;;;;;3.25;1.80;;;7.20;99.90;;;;;;5101422;28;20103;-84
2022/02/26 18:21:20;;;;;;;3.13;1.77;;;7.20;99.90;;;;;;5086529;28;20020;-85
2022/02/26 18:23:46;;;;;;;1.45;1.27;;;7.20;99.90;;;;;;5098308;28;20054;-84
2022/02/26 18:26:12;;;;;;;2.55;1.77;;;7.20;99.90;;;;;;5100874;28;20028;-84
2022/02/26 18:28:46;;;;;;;3.28;1.70;;;7.10;99.90;;;;;;5089085;28;20023;-84
2022/02/26 18:31:15;;;;;;;2.58;1.40;;;7.10;99.90;;;;;;5098169;28;20028;-82